Wetterdaten: Woche 10.10.16 - 16.10.16 (KW41)
Datum Zeit Temperatur Luftfeuchte Luftdruck Niederschlag Windrichtung Sonnenschein Solar Wind
10.10.2016 00:00 4,8 C 93 % 1022,6 hPa 0,0 l/m N 0,00 h 0 W/m 0,0 km/h (0 Bft)
10.10.2016 01:00 4,7 C 93 % 1022,8 hPa 0,0 l/m N 0,00 h 0 W/m 0,0 km/h (0 Bft)
10.10.2016 02:00 4,1 C 93 % 1022,7 hPa 0,0 l/m N 0,00 h 0 W/m 0,0 km/h (0 Bft)
10.10.2016 03:00 3,0 C 95 % 1022,4 hPa 0,0 l/m N 0,00 h 0 W/m 0,3 km/h (0 Bft)
10.10.2016 04:00 2,6 C 96 % 1022,2 hPa 0,0 l/m NO 0,00 h 0 W/m 2,3 km/h (1 Bft)
10.10.2016 05:00 2,2 C 96 % 1022,1 hPa 0,0 l/m N 0,00 h 0 W/m 0,0 km/h (0 Bft)
10.10.2016 06:00 2,0 C 97 % 1022,1 hPa 0,0 l/m N 0,00 h 0 W/m 0,0 km/h (0 Bft)
10.10.2016 07:00 2,3 C 97 % 1022,2 hPa 0,0 l/m N 0,00 h 8 W/m 0,0 km/h (0 Bft)
10.10.2016 08:00 3,2 C 98 % 1022,1 hPa 0,0 l/m N 0,25 h 59 W/m 0,9 km/h (0 Bft)
10.10.2016 09:00 3,5 C 98 % 1022,1 hPa 0,0 l/m N 0,00 h 86 W/m 1,6 km/h (1 Bft)
10.10.2016 10:00 5,0 C 97 % 1022,1 hPa 0,0 l/m NO 0,58 h 261 W/m 5,2 km/h (1 Bft)
10.10.2016 11:00 6,5 C 92 % 1021,8 hPa 0,0 l/m NO 0,08 h 208 W/m 5,6 km/h (1 Bft)
10.10.2016 12:00 8,1 C 82 % 1021,3 hPa 0,0 l/m NO 0,25 h 330 W/m 10,1 km/h (2 Bft)
10.10.2016 13:00 10,1 C 72 % 1020,4 hPa 0,0 l/m O-SO 0,33 h 391 W/m 12,8 km/h (3 Bft)
10.10.2016 14:00 8,8 C 75 % 1019,8 hPa 0,0 l/m NO 0,00 h 143 W/m 8,4 km/h (2 Bft)
10.10.2016 15:00 8,9 C 74 % 1019,6 hPa 0,0 l/m NO 0,25 h 235 W/m 14,6 km/h (3 Bft)
10.10.2016 16:00 8,6 C 78 % 1019,4 hPa 0,0 l/m O-NO 0,00 h 135 W/m 13,6 km/h (3 Bft)
10.10.2016 17:00 8,0 C 83 % 1019,2 hPa 0,0 l/m NO 0,00 h 40 W/m 9,0 km/h (2 Bft)
10.10.2016 18:00 7,4 C 86 % 1019,1 hPa 0,0 l/m NO 0,00 h 8 W/m 3,9 km/h (1 Bft)
10.10.2016 19:00 7,0 C 89 % 1019,0 hPa 0,0 l/m NO 0,00 h 0 W/m 0,8 km/h (0 Bft)
10.10.2016 20:00 6,6 C 90 % 1019,0 hPa 0,0 l/m N 0,00 h 0 W/m 2,4 km/h (1 Bft)
10.10.2016 21:00 6,4 C 90 % 1019,1 hPa 0,0 l/m NO 0,00 h 0 W/m 3,6 km/h (1 Bft)
10.10.2016 22:00 6,2 C 91 % 1018,8 hPa 0,0 l/m N 0,00 h 0 W/m 2,3 km/h (1 Bft)
10.10.2016 23:00 5,8 C 92 % 1018,5 hPa 0,0 l/m NO 0,00 h 0 W/m 2,7 km/h (1 Bft)
11.10.2016 00:00 5,5 C 93 % 1018,0 hPa 0,0 l/m N 0,00 h 0 W/m 2,9 km/h (1 Bft)
11.10.2016 01:00 5,4 C 93 % 1017,7 hPa 0,0 l/m NO 0,00 h 0 W/m 4,4 km/h (1 Bft)
11.10.2016 02:00 5,3 C 92 % 1017,5 hPa 0,0 l/m NO 0,00 h 0 W/m 2,4 km/h (1 Bft)
11.10.2016 03:00 5,0 C 94 % 1017,1 hPa 0,0 l/m NO 0,00 h 0 W/m 4,1 km/h (1 Bft)
11.10.2016 04:00 4,9 C 95 % 1016,9 hPa 0,0 l/m NO 0,00 h 0 W/m 2,9 km/h (1 Bft)
11.10.2016 05:00 4,7 C 94 % 1016,5 hPa 0,0 l/m NO 0,00 h 0 W/m 4,5 km/h (1 Bft)
11.10.2016 06:00 4,4 C 94 % 1016,4 hPa 0,0 l/m NO 0,00 h 0 W/m 5,6 km/h (1 Bft)
11.10.2016 07:00 4,5 C 95 % 1016,3 hPa 0,0 l/m NO 0,00 h 8 W/m 7,1 km/h (2 Bft)
11.10.2016 08:00 4,7 C 95 % 1016,4 hPa 0,0 l/m NO 0,00 h 42 W/m 5,8 km/h (1 Bft)
11.10.2016 09:00 5,2 C 94 % 1016,6 hPa 0,0 l/m NO 0,00 h 91 W/m 7,1 km/h (2 Bft)
11.10.2016 10:00 6,1 C 90 % 1016,6 hPa 0,0 l/m NO 0,00 h 172 W/m 10,2 km/h (2 Bft)
11.10.2016 11:00 6,9 C 87 % 1016,4 hPa 0,0 l/m NO 0,08 h 242 W/m 10,9 km/h (2 Bft)
11.10.2016 12:00 8,3 C 77 % 1016,0 hPa 0,0 l/m O 0,33 h 388 W/m 14,4 km/h (3 Bft)
11.10.2016 13:00 9,3 C 70 % 1015,5 hPa 0,0 l/m O 0,42 h 291 W/m 16,2 km/h (3 Bft)
11.10.2016 14:00 9,5 C 68 % 1015,2 hPa 0,0 l/m NO 0,67 h 395 W/m 15,6 km/h (3 Bft)
11.10.2016 15:00 8,4 C 74 % 1015,1 hPa 0,0 l/m O-NO 0,25 h 227 W/m 8,8 km/h (2 Bft)
11.10.2016 16:00 8,1 C 73 % 1015,5 hPa 0,0 l/m NO 0,08 h 127 W/m 17,4 km/h (3 Bft)
11.10.2016 17:00 7,4 C 76 % 1015,7 hPa 0,0 l/m NO 0,17 h 76 W/m 7,6 km/h (2 Bft)
11.10.2016 18:00 6,7 C 80 % 1015,8 hPa 0,0 l/m O-SO 0,08 h 19 W/m 5,1 km/h (1 Bft)
11.10.2016 19:00 5,1 C 88 % 1016,2 hPa 0,0 l/m N 0,00 h 0 W/m 0,0 km/h (0 Bft)
11.10.2016 20:00 4,9 C 92 % 1016,8 hPa 0,0 l/m N 0,00 h 0 W/m 0,4 km/h (0 Bft)
11.10.2016 21:00 5,0 C 90 % 1017,0 hPa 0,0 l/m N 0,00 h 0 W/m 0,0 km/h (0 Bft)
11.10.2016 22:00 4,7 C 93 % 1017,0 hPa 0,0 l/m N 0,00 h 0 W/m 0,0 km/h (0 Bft)
11.10.2016 23:00 4,4 C 95 % 1016,7 hPa 0,0 l/m N 0,00 h 0 W/m 0,0 km/h (0 Bft)
12.10.2016 00:00 4,4 C 95 % 1016,4 hPa 0,0 l/m N 0,00 h 0 W/m 0,0 km/h (0 Bft)
12.10.2016 01:00 4,3 C 96 % 1016,3 hPa 0,0 l/m N 0,00 h 0 W/m 0,0 km/h (0 Bft)
12.10.2016 02:00 4,2 C 96 % 1016,3 hPa 0,0 l/m N 0,00 h 0 W/m 0,0 km/h (0 Bft)
12.10.2016 03:00 4,1 C 96 % 1016,4 hPa 0,0 l/m N 0,00 h 0 W/m 0,0 km/h (0 Bft)
12.10.2016 04:00 3,9 C 96 % 1016,2 hPa 0,0 l/m N 0,00 h 0 W/m 0,3 km/h (0 Bft)
12.10.2016 05:00 3,8 C 96 % 1016,1 hPa 0,0 l/m N 0,00 h 0 W/m 0,0 km/h (0 Bft)
12.10.2016 06:00 3,3 C 96 % 1016,1 hPa 0,0 l/m N 0,00 h 0 W/m 1,2 km/h (1 Bft)
12.10.2016 07:00 2,9 C 97 % 1016,1 hPa 0,0 l/m O 0,00 h 5 W/m 1,5 km/h (1 Bft)
12.10.2016 08:00 3,3 C 97 % 1016,4 hPa 0,0 l/m O-NO 0,00 h 21 W/m 6,7 km/h (2 Bft)
12.10.2016 09:00 3,9 C 96 % 1016,8 hPa 0,0 l/m O 0,00 h 78 W/m 7,0 km/h (2 Bft)
12.10.2016 10:00 4,7 C 93 % 1017,0 hPa 0,0 l/m O-NO 0,50 h 233 W/m 9,0 km/h (2 Bft)
12.10.2016 11:00 5,6 C 88 % 1016,9 hPa 0,0 l/m NO 0,33 h 275 W/m 11,2 km/h (2 Bft)
12.10.2016 12:00 7,7 C 80 % 1016,3 hPa 0,0 l/m N-NO 0,92 h 580 W/m 13,8 km/h (3 Bft)
12.10.2016 13:00 9,0 C 73 % 1015,8 hPa 0,0 l/m NO 0,50 h 373 W/m 18,5 km/h (3 Bft)
12.10.2016 14:00 9,9 C 70 % 1015,3 hPa 0,0 l/m O-NO 0,75 h 505 W/m 18,2 km/h (3 Bft)
12.10.2016 15:00 10,4 C 63 % 1014,9 hPa 0,0 l/m O-NO 0,83 h 365 W/m 21,6 km/h (4 Bft)
12.10.2016 16:00 10,3 C 63 % 1014,9 hPa 0,0 l/m O 1,00 h 261 W/m 19,3 km/h (3 Bft)
12.10.2016 17:00 9,2 C 66 % 1014,9 hPa 0,0 l/m O 0,25 h 80 W/m 18,1 km/h (3 Bft)
12.10.2016 18:00 7,9 C 70 % 1015,0 hPa 0,0 l/m O 0,08 h 15 W/m 10,7 km/h (2 Bft)
12.10.2016 19:00 6,0 C 80 % 1015,3 hPa 0,0 l/m NO 0,00 h 0 W/m 5,4 km/h (1 Bft)
12.10.2016 20:00 5,2 C 84 % 1015,2 hPa 0,0 l/m N-NO 0,00 h 0 W/m 6,6 km/h (2 Bft)
12.10.2016 21:00 4,3 C 88 % 1015,3 hPa 0,0 l/m N-NO 0,00 h 0 W/m 3,2 km/h (1 Bft)
12.10.2016 22:00 3,8 C 90 % 1015,4 hPa 0,0 l/m N-NO 0,00 h 0 W/m 6,4 km/h (2 Bft)
12.10.2016 23:00 3,6 C 92 % 1015,3 hPa 0,0 l/m N-NO 0,00 h 0 W/m 7,0 km/h (2 Bft)
13.10.2016 00:00 3,5 C 93 % 1015,1 hPa 0,0 l/m N-NO 0,00 h 0 W/m 4,8 km/h (1 Bft)
13.10.2016 01:00 3,0 C 95 % 1015,0 hPa 0,0 l/m NO 0,00 h 0 W/m 4,3 km/h (1 Bft)
13.10.2016 02:00 3,6 C 95 % 1014,9 hPa 0,0 l/m NO 0,00 h 0 W/m 8,4 km/h (2 Bft)
13.10.2016 03:00 4,0 C 94 % 1014,6 hPa 0,0 l/m O 0,00 h 0 W/m 11,3 km/h (2 Bft)
13.10.2016 04:00 4,1 C 93 % 1014,3 hPa 0,0 l/m O 0,00 h 0 W/m 13,3 km/h (3 Bft)
13.10.2016 05:00 4,0 C 92 % 1013,9 hPa 0,0 l/m O 0,00 h 0 W/m 14,5 km/h (3 Bft)
13.10.2016 06:00 3,6 C 92 % 1013,6 hPa 0,0 l/m O 0,00 h 0 W/m 10,9 km/h (2 Bft)
13.10.2016 07:00 3,4 C 93 % 1013,4 hPa 0,0 l/m O-NO 0,00 h 7 W/m 13,2 km/h (3 Bft)
13.10.2016 08:00 3,5 C 93 % 1013,4 hPa 0,0 l/m O-NO 0,00 h 37 W/m 13,4 km/h (3 Bft)
13.10.2016 09:00 3,9 C 91 % 1013,5 hPa 0,0 l/m O-NO 0,08 h 129 W/m 17,0 km/h (3 Bft)
13.10.2016 10:00 4,9 C 87 % 1013,3 hPa 0,0 l/m O-NO 0,75 h 295 W/m 16,4 km/h (3 Bft)
13.10.2016 11:00 6,6 C 81 % 1012,4 hPa 0,0 l/m O-NO 1,00 h 401 W/m 21,8 km/h (4 Bft)
13.10.2016 12:00 7,8 C 75 % 1011,7 hPa 0,0 l/m O-NO 1,00 h 438 W/m 21,8 km/h (4 Bft)
13.10.2016 13:00 8,7 C 73 % 1011,0 hPa 0,0 l/m O-NO 0,67 h 315 W/m 20,5 km/h (4 Bft)
13.10.2016 14:00 9,0 C 72 % 1010,7 hPa 0,0 l/m O 0,17 h 258 W/m 18,0 km/h (3 Bft)
13.10.2016 15:00 9,8 C 70 % 1010,3 hPa 0,0 l/m O 0,50 h 296 W/m 18,1 km/h (3 Bft)
13.10.2016 16:00 9,5 C 72 % 1010,0 hPa 0,0 l/m O 0,25 h 160 W/m 17,4 km/h (3 Bft)
13.10.2016 17:00 8,8 C 76 % 1010,0 hPa 0,0 l/m O 0,00 h 75 W/m 14,8 km/h (3 Bft)
13.10.2016 18:00 8,0 C 80 % 1009,9 hPa 0,0 l/m O-NO 0,08 h 16 W/m 12,6 km/h (3 Bft)
13.10.2016 19:00 7,2 C 85 % 1010,0 hPa 0,0 l/m O-NO 0,00 h 0 W/m 9,3 km/h (2 Bft)
13.10.2016 20:00 6,7 C 88 % 1010,1 hPa 0,0 l/m O-NO 0,00 h 0 W/m 8,4 km/h (2 Bft)
13.10.2016 21:00 6,2 C 90 % 1010,1 hPa 0,0 l/m O-NO 0,00 h 0 W/m 5,1 km/h (1 Bft)
13.10.2016 22:00 5,6 C 92 % 1010,1 hPa 0,0 l/m NO 0,00 h 0 W/m 2,3 km/h (1 Bft)
13.10.2016 23:00 4,7 C 94 % 1010,0 hPa 0,0 l/m N 0,00 h 0 W/m 0,4 km/h (0 Bft)
14.10.2016 00:00 4,1 C 95 % 1009,8 hPa 0,0 l/m NO 0,00 h 0 W/m 1,9 km/h (1 Bft)
14.10.2016 01:00 3,8 C 96 % 1009,6 hPa 0,0 l/m NO 0,00 h 0 W/m 1,1 km/h (0 Bft)
14.10.2016 02:00 3,5 C 97 % 1009,6 hPa 0,0 l/m NO 0,00 h 0 W/m 5,6 km/h (1 Bft)
14.10.2016 03:00 3,9 C 97 % 1009,2 hPa 0,0 l/m NO 0,00 h 0 W/m 7,1 km/h (2 Bft)
14.10.2016 04:00 4,5 C 97 % 1008,8 hPa 0,0 l/m NO 0,00 h 0 W/m 9,1 km/h (2 Bft)
14.10.2016 05:00 4,7 C 97 % 1008,2 hPa 0,0 l/m N-NO 0,00 h 0 W/m 9,1 km/h (2 Bft)
14.10.2016 06:00 4,8 C 97 % 1007,7 hPa 0,0 l/m O-NO 0,00 h 0 W/m 8,9 km/h (2 Bft)
14.10.2016 07:00 4,8 C 98 % 1007,5 hPa 0,0 l/m NO 0,00 h 6 W/m 8,7 km/h (2 Bft)
14.10.2016 08:00 5,0 C 98 % 1007,3 hPa 0,0 l/m NO 0,00 h 24 W/m 11,8 km/h (2 Bft)
14.10.2016 09:00 5,5 C 98 % 1007,7 hPa 0,0 l/m O-NO 0,00 h 67 W/m 12,5 km/h (3 Bft)
14.10.2016 10:00 6,1 C 97 % 1007,4 hPa 0,0 l/m O-NO 0,00 h 78 W/m 12,8 km/h (3 Bft)
14.10.2016 11:00 6,6 C 95 % 1007,3 hPa 0,0 l/m O 0,00 h 83 W/m 10,2 km/h (2 Bft)
14.10.2016 12:00 7,4 C 93 % 1006,4 hPa 0,0 l/m O-NO 0,00 h 208 W/m 10,6 km/h (2 Bft)
14.10.2016 13:00 8,5 C 89 % 1006,0 hPa 0,0 l/m O-NO 0,00 h 135 W/m 10,3 km/h (2 Bft)
14.10.2016 14:00 8,6 C 90 % 1005,5 hPa 0,0 l/m O-NO 0,00 h 60 W/m 9,0 km/h (2 Bft)
14.10.2016 15:00 8,6 C 90 % 1004,9 hPa 0,0 l/m O-NO 0,00 h 96 W/m 11,8 km/h (2 Bft)
14.10.2016 16:00 8,8 C 91 % 1004,2 hPa 0,0 l/m O-NO 0,00 h 87 W/m 9,5 km/h (2 Bft)
14.10.2016 17:00 9,1 C 91 % 1004,3 hPa 0,0 l/m NO 0,00 h 58 W/m 2,9 km/h (1 Bft)
14.10.2016 18:00 8,8 C 92 % 1004,6 hPa 0,0 l/m N 0,00 h 13 W/m 1,5 km/h (1 Bft)
14.10.2016 19:00 7,8 C 94 % 1004,1 hPa 0,0 l/m O-NO 0,00 h 0 W/m 2,5 km/h (1 Bft)
14.10.2016 20:00 7,0 C 96 % 1004,0 hPa 0,0 l/m NO 0,00 h 0 W/m 1,6 km/h (1 Bft)
14.10.2016 21:00 6,8 C 97 % 1004,4 hPa 0,0 l/m NO 0,00 h 0 W/m 5,6 km/h (1 Bft)
14.10.2016 22:00 6,8 C 97 % 1005,4 hPa 0,0 l/m N 0,00 h 0 W/m 0,0 km/h (0 Bft)
14.10.2016 23:00 6,3 C 98 % 1005,6 hPa 0,0 l/m N 0,00 h 0 W/m 0,4 km/h (0 Bft)
15.10.2016 00:00 6,0 C 98 % 1006,4 hPa 0,0 l/m NO 0,00 h 0 W/m 2,3 km/h (1 Bft)
15.10.2016 01:00 6,6 C 98 % 1006,5 hPa 0,0 l/m N 0,00 h 0 W/m 0,3 km/h (0 Bft)
15.10.2016 02:00 6,4 C 98 % 1007,2 hPa 0,0 l/m NO 0,00 h 0 W/m 0,7 km/h (0 Bft)
15.10.2016 03:00 6,0 C 98 % 1007,9 hPa 0,0 l/m N 0,00 h 0 W/m 0,0 km/h (0 Bft)
15.10.2016 04:00 5,9 C 99 % 1009,0 hPa 0,0 l/m N 0,00 h 0 W/m 0,8 km/h (0 Bft)
15.10.2016 05:00 6,5 C 99 % 1009,4 hPa 0,0 l/m S-SW 0,00 h 0 W/m 4,6 km/h (1 Bft)
15.10.2016 06:00 6,6 C 99 % 1010,1 hPa 0,0 l/m S 0,00 h 0 W/m 2,1 km/h (1 Bft)
15.10.2016 07:00 6,9 C 99 % 1011,1 hPa 0,0 l/m N 0,00 h 9 W/m 0,8 km/h (0 Bft)
15.10.2016 08:00 7,5 C 99 % 1012,1 hPa 0,0 l/m N 0,00 h 31 W/m 0,7 km/h (0 Bft)
15.10.2016 09:00 8,3 C 99 % 1013,2 hPa 0,0 l/m N 0,00 h 64 W/m 1,6 km/h (1 Bft)
15.10.2016 10:00 9,3 C 99 % 1014,1 hPa 0,0 l/m S 0,00 h 79 W/m 3,7 km/h (1 Bft)
15.10.2016 11:00 9,3 C 98 % 1014,6 hPa 0,0 l/m S 0,00 h 99 W/m 7,5 km/h (2 Bft)
15.10.2016 12:00 10,1 C 98 % 1014,7 hPa 0,0 l/m S-SW 0,00 h 153 W/m 8,6 km/h (2 Bft)
15.10.2016 13:00 11,4 C 95 % 1014,7 hPa 0,0 l/m S 0,00 h 221 W/m 10,8 km/h (2 Bft)
15.10.2016 14:00 13,4 C 87 % 1014,4 hPa 0,0 l/m SW 0,42 h 347 W/m 14,1 km/h (3 Bft)
15.10.2016 15:00 14,4 C 78 % 1014,6 hPa 0,0 l/m W 0,33 h 216 W/m 11,0 km/h (2 Bft)
15.10.2016 16:00 14,9 C 76 % 1014,8 hPa 0,0 l/m W-SW 1,00 h 260 W/m 8,7 km/h (2 Bft)
15.10.2016 17:00 14,4 C 78 % 1015,3 hPa 0,0 l/m W-SW 0,25 h 83 W/m 3,7 km/h (1 Bft)
15.10.2016 18:00 12,1 C 88 % 1015,9 hPa 0,0 l/m N 0,33 h 24 W/m 0,0 km/h (0 Bft)
15.10.2016 19:00 10,0 C 94 % 1016,6 hPa 0,0 l/m N 0,00 h 0 W/m 0,0 km/h (0 Bft)
15.10.2016 20:00 9,1 C 96 % 1017,3 hPa 0,0 l/m N 0,00 h 0 W/m 0,0 km/h (0 Bft)
15.10.2016 21:00 8,0 C 97 % 1017,9 hPa 0,0 l/m N 0,00 h 0 W/m 0,0 km/h (0 Bft)
15.10.2016 22:00 7,1 C 97 % 1018,2 hPa 0,0 l/m N 0,00 h 0 W/m 0,0 km/h (0 Bft)
15.10.2016 23:00 6,4 C 97 % 1018,6 hPa 0,0 l/m N 0,00 h 0 W/m 0,0 km/h (0 Bft)
16.10.2016 00:00 6,1 C 98 % 1018,9 hPa 0,0 l/m N 0,00 h 0 W/m 0,0 km/h (0 Bft)
16.10.2016 01:00 5,5 C 98 % 1019,0 hPa 0,0 l/m N 0,00 h 0 W/m 0,0 km/h (0 Bft)
16.10.2016 02:00 5,0 C 99 % 1019,3 hPa 0,0 l/m N 0,00 h 0 W/m 0,0 km/h (0 Bft)
16.10.2016 03:00 4,8 C 99 % 1019,5 hPa 0,0 l/m N 0,00 h 0 W/m 0,0 km/h (0 Bft)
16.10.2016 04:00 4,4 C 99 % 1019,6 hPa 0,0 l/m N 0,00 h 0 W/m 0,5 km/h (0 Bft)
16.10.2016 05:00 3,6 C 99 % 1019,8 hPa 0,0 l/m W-SW 0,00 h 0 W/m 0,4 km/h (0 Bft)
16.10.2016 06:00 3,3 C 99 % 1020,3 hPa 0,0 l/m N 0,00 h 0 W/m 0,9 km/h (0 Bft)
16.10.2016 07:00 3,8 C 99 % 1020,5 hPa 0,2 l/m N 0,00 h 8 W/m 0,0 km/h (0 Bft)
16.10.2016 08:00 4,1 C 99 % 1020,9 hPa 0,0 l/m N 0,00 h 50 W/m 0,0 km/h (0 Bft)
16.10.2016 09:00 4,9 C 100 % 1021,4 hPa 0,0 l/m W-SW 0,42 h 175 W/m 0,4 km/h (0 Bft)
16.10.2016 10:00 7,1 C 100 % 1021,4 hPa 0,0 l/m N 1,00 h 381 W/m 1,6 km/h (1 Bft)
16.10.2016 11:00 10,2 C 96 % 1021,4 hPa 0,0 l/m W-SW 0,92 h 443 W/m 2,8 km/h (1 Bft)
16.10.2016 12:00 13,6 C 85 % 1021,1 hPa 0,0 l/m W-SW 1,00 h 529 W/m 2,0 km/h (1 Bft)
16.10.2016 13:00 15,7 C 78 % 1020,5 hPa 0,0 l/m W-NW 1,00 h 525 W/m 6,5 km/h (2 Bft)
16.10.2016 14:00 17,3 C 74 % 1020,0 hPa 0,0 l/m N-NO 1,00 h 470 W/m 7,6 km/h (2 Bft)
16.10.2016 15:00 17,8 C 72 % 1019,8 hPa 0,0 l/m N 1,00 h 367 W/m 8,2 km/h (2 Bft)
16.10.2016 16:00 17,5 C 75 % 1019,6 hPa 0,0 l/m N-NO 0,92 h 217 W/m 9,9 km/h (2 Bft)
16.10.2016 17:00 16,1 C 80 % 1019,5 hPa 0,0 l/m NO 0,00 h 49 W/m 7,9 km/h (2 Bft)
16.10.2016 18:00 13,6 C 89 % 1019,9 hPa 0,0 l/m NO 0,08 h 14 W/m 3,2 km/h (1 Bft)
16.10.2016 19:00 11,9 C 94 % 1020,4 hPa 0,0 l/m N 0,00 h 0 W/m 0,7 km/h (0 Bft)
16.10.2016 20:00 10,8 C 96 % 1020,8 hPa 0,0 l/m N 0,00 h 0 W/m 0,4 km/h (0 Bft)
16.10.2016 21:00 10,1 C 97 % 1020,6 hPa 0,0 l/m N 0,00 h 0 W/m 0,0 km/h (0 Bft)
16.10.2016 22:00 9,6 C 98 % 1020,8 hPa 0,0 l/m NO 0,00 h 0 W/m 1,3 km/h (1 Bft)
16.10.2016 23:00 7,9 C 98 % 1021,3 hPa 0,0 l/m NO 0,00 h 0 W/m 1,2 km/h (1 Bft)
Min-Datum _ 10.10.16 12.10.16 14.10.16 - - - - 10.10.16
_ Min-Zeit 06:45 16:00 20:30 - - - - 00:00
Minimum _ 1,6 C 60 % 1003,7 hPa - - - - 0,0 km/h (0 Bft)
Max-Datum _ 16.10.16 14.10.16 10.10.16 16.10.16 - 10.10.16 11.10.16 13.10.16
_ Max-Zeit 15:10 08:30 01:45 07:50 - 08:05 12:45 11:20
Maximum _ 18,0 C 100 % 1023,0 hPa 0,2 l/m - 0,08 h 780 W/m 29,0 km/h
O (5 Bft)
Durchschnitt _ 6,8 C 90 % 1015,0 hPa #0,2 l/m NO #23:10 h 178 W/m 6,2 km/h (2 Bft)